createdAt,value
2018-04-30T00:00:16.999Z,944.5
2018-04-30T00:00:57.527Z,944.48
2018-04-30T00:01:38.074Z,944.45
2018-04-30T00:02:18.610Z,944.44
2018-04-30T00:02:59.132Z,944.45
2018-04-30T00:03:39.664Z,944.41
2018-04-30T00:04:20.196Z,944.4
2018-04-30T00:05:00.729Z,944.41
2018-04-30T00:05:41.260Z,944.37
2018-04-30T00:06:22.410Z,944.38
2018-04-30T00:07:02.912Z,944.39
2018-04-30T00:07:42.842Z,944.4
2018-04-30T00:08:23.378Z,944.4
2018-04-30T00:09:03.912Z,944.39
2018-04-30T00:09:44.442Z,944.4
2018-04-30T00:10:24.972Z,944.38
2018-04-30T00:11:05.500Z,944.42
2018-04-30T00:11:46.038Z,944.42
2018-04-30T00:12:26.570Z,944.45
2018-04-30T00:13:07.103Z,944.45
2018-04-30T00:13:47.625Z,944.49
2018-04-30T00:14:28.152Z,944.48
2018-04-30T00:15:08.675Z,944.55
2018-04-30T00:15:49.207Z,944.55
2018-04-30T00:16:29.736Z,944.51
2018-04-30T00:17:10.265Z,944.51
2018-04-30T00:17:50.793Z,944.48
2018-04-30T00:18:31.324Z,944.5
2018-04-30T00:19:11.852Z,944.47
2018-04-30T00:19:52.381Z,944.44
2018-04-30T00:20:32.928Z,944.45
2018-04-30T00:21:13.460Z,944.41
2018-04-30T00:21:53.993Z,944.49
2018-04-30T00:22:34.524Z,944.44
2018-04-30T00:23:15.045Z,944.39
2018-04-30T00:23:55.578Z,944.42
2018-04-30T00:24:36.110Z,944.49
2018-04-30T00:25:16.645Z,944.43
2018-04-30T00:25:57.174Z,944.47
2018-04-30T00:26:37.709Z,944.43
2018-04-30T00:27:18.243Z,944.42
2018-04-30T00:27:58.770Z,944.38
2018-04-30T00:28:39.303Z,944.4
2018-04-30T00:29:19.833Z,944.42
2018-04-30T00:30:00.919Z,944.41
2018-04-30T00:30:40.885Z,944.43
2018-04-30T00:31:21.414Z,944.36
2018-04-30T00:32:01.950Z,944.38
2018-04-30T00:32:42.486Z,944.34
2018-04-30T00:33:23.018Z,944.32
2018-04-30T00:34:04.416Z,944.3
2018-04-30T00:34:44.076Z,944.33
2018-04-30T00:35:25.414Z,944.34
2018-04-30T00:36:05.146Z,944.31
2018-04-30T00:36:45.674Z,944.3
2018-04-30T00:37:26.205Z,944.29
2018-04-30T00:38:06.744Z,944.31
2018-04-30T00:38:47.277Z,944.31
2018-04-30T00:39:27.806Z,944.35
2018-04-30T00:40:08.337Z,944.32
2018-04-30T00:40:48.870Z,944.29
2018-04-30T00:41:29.391Z,944.31
2018-04-30T00:42:09.922Z,944.32
2018-04-30T00:42:50.454Z,944.31
2018-04-30T00:43:30.989Z,944.34
2018-04-30T00:44:11.518Z,944.34
2018-04-30T00:44:52.920Z,944.37
2018-04-30T00:45:33.085Z,944.36
2018-04-30T00:46:13.624Z,944.38
2018-04-30T00:46:54.133Z,944.36
2018-04-30T00:47:34.664Z,944.34
2018-04-30T00:48:15.195Z,944.32
2018-04-30T00:48:55.726Z,944.28
2018-04-30T00:49:36.925Z,944.3
2018-04-30T00:50:16.775Z,944.25
2018-04-30T00:50:57.302Z,944.2
2018-04-30T00:51:37.832Z,944.23
2018-04-30T00:52:18.359Z,944.21
2018-04-30T00:52:58.877Z,944.23
2018-04-30T00:53:39.409Z,944.29
2018-04-30T00:54:19.938Z,944.3
2018-04-30T00:55:01.423Z,944.29
2018-04-30T00:55:40.978Z,944.29
2018-04-30T00:56:22.419Z,944.29
2018-04-30T00:57:02.038Z,944.22
2018-04-30T00:57:42.562Z,944.23
2018-04-30T00:58:23.088Z,944.23
2018-04-30T00:59:03.614Z,944.28
2018-04-30T00:59:44.145Z,944.3
2018-04-30T01:00:24.683Z,944.34
2018-04-30T01:01:05.202Z,944.35
2018-04-30T01:01:45.729Z,944.34
2018-04-30T01:02:26.271Z,944.28
2018-04-30T01:03:06.791Z,944.23
2018-04-30T01:03:47.322Z,944.23
2018-04-30T01:04:27.854Z,944.28
2018-04-30T01:05:08.381Z,944.3
2018-04-30T01:05:48.906Z,944.34
2018-04-30T01:06:29.435Z,944.36
2018-04-30T01:07:09.947Z,944.36
2018-04-30T01:07:50.533Z,944.34
2018-04-30T01:08:31.691Z,944.34
2018-04-30T01:09:12.202Z,944.34
2018-04-30T01:09:52.734Z,944.33
2018-04-30T01:10:33.267Z,944.33
2018-04-30T01:11:13.808Z,944.3
2018-04-30T01:11:54.922Z,944.3
2018-04-30T01:12:34.876Z,944.29
2018-04-30T01:13:15.399Z,944.27
2018-04-30T01:13:56.599Z,944.27
2018-04-30T01:14:37.131Z,944.23
2018-04-30T01:15:17.663Z,944.23
2018-04-30T01:15:58.192Z,944.22
2018-04-30T01:16:38.724Z,944.19
2018-04-30T01:17:19.256Z,944.19
2018-04-30T01:17:59.783Z,944.22
2018-04-30T01:18:40.314Z,944.18
2018-04-30T01:19:20.841Z,944.18
2018-04-30T01:20:01.366Z,944.17
2018-04-30T01:20:41.895Z,944.17
2018-04-30T01:21:22.411Z,944.16
2018-04-30T01:22:02.943Z,944.16
2018-04-30T01:22:43.465Z,944.14
2018-04-30T01:23:24.600Z,944.2
2018-04-30T01:24:05.129Z,944.19
2018-04-30T01:24:46.430Z,944.22
2018-04-30T01:25:26.816Z,944.23
2018-04-30T01:26:07.343Z,944.27
2018-04-30T01:26:47.869Z,944.25
2018-04-30T01:27:28.397Z,944.25
2018-04-30T01:28:08.922Z,944.28
2018-04-30T01:28:49.452Z,944.23
2018-04-30T01:29:29.975Z,944.22
2018-04-30T01:30:10.503Z,944.24
2018-04-30T01:30:51.029Z,944.22
2018-04-30T01:31:31.567Z,944.23
2018-04-30T01:32:12.094Z,944.23
2018-04-30T01:32:52.627Z,944.18
2018-04-30T01:33:33.151Z,944.2
2018-04-30T01:34:13.680Z,944.21
2018-04-30T01:34:54.209Z,944.2
2018-04-30T01:35:34.740Z,944.26
2018-04-30T01:36:15.268Z,944.26
2018-04-30T01:36:55.814Z,944.26
2018-04-30T01:37:36.329Z,944.3
2018-04-30T01:38:16.859Z,944.28
2018-04-30T01:38:57.375Z,944.29
2018-04-30T01:39:37.908Z,944.31
2018-04-30T01:40:18.416Z,944.36
2018-04-30T01:40:58.944Z,944.37
2018-04-30T01:41:39.462Z,944.4
2018-04-30T01:42:20.933Z,944.39
2018-04-30T01:43:00.524Z,944.38
2018-04-30T01:43:41.053Z,944.43
2018-04-30T01:44:21.587Z,944.41
2018-04-30T01:45:02.116Z,944.4
2018-04-30T01:45:42.643Z,944.43
2018-04-30T01:46:23.173Z,944.48
2018-04-30T01:47:03.726Z,944.43
2018-04-30T01:47:44.205Z,944.42
2018-04-30T01:48:24.734Z,944.46
2018-04-30T01:49:05.285Z,944.47
2018-04-30T01:49:45.822Z,944.51
2018-04-30T01:50:26.342Z,944.49
2018-04-30T01:51:07.932Z,944.58
2018-04-30T01:51:47.988Z,944.64
2018-04-30T01:52:28.545Z,944.7
2018-04-30T01:53:09.078Z,944.8
2018-04-30T01:53:49.605Z,944.83
2018-04-30T01:54:30.129Z,944.85
2018-04-30T01:55:10.660Z,944.87
2018-04-30T01:55:51.426Z,944.86
2018-04-30T01:56:33.435Z,944.79
2018-04-30T01:57:14.000Z,944.71
2018-04-30T01:57:54.520Z,944.72
2018-04-30T01:58:35.052Z,944.72
2018-04-30T01:59:15.585Z,944.7
2018-04-30T01:59:56.113Z,944.72
2018-04-30T02:00:36.644Z,944.73
2018-04-30T02:01:18.107Z,944.7
2018-04-30T02:01:58.633Z,944.71
2018-04-30T02:02:39.167Z,944.63
2018-04-30T02:03:19.676Z,944.63
2018-04-30T02:04:00.203Z,944.62
2018-04-30T02:04:40.732Z,944.62
2018-04-30T02:05:24.434Z,944.65
2018-04-30T02:06:05.435Z,944.66
2018-04-30T02:06:44.519Z,944.64
2018-04-30T02:07:25.048Z,944.63
2018-04-30T02:08:05.581Z,944.62
2018-04-30T02:08:47.437Z,944.64
2018-04-30T02:09:26.622Z,944.57
2018-04-30T02:10:07.155Z,944.6
2018-04-30T02:10:47.717Z,944.55
2018-04-30T02:11:28.708Z,944.6
2018-04-30T02:12:09.944Z,944.57
2018-04-30T02:12:49.750Z,944.59
2018-04-30T02:13:30.279Z,944.62
2018-04-30T02:14:11.746Z,944.62
2018-04-30T02:14:52.276Z,944.62
2018-04-30T02:15:32.813Z,944.68
2018-04-30T02:16:13.342Z,944.67
2018-04-30T02:16:53.857Z,944.74
2018-04-30T02:17:34.398Z,944.69
2018-04-30T02:18:14.928Z,944.77
2018-04-30T02:18:55.454Z,944.8
2018-04-30T02:19:35.983Z,944.82
2018-04-30T02:20:16.510Z,944.83
2018-04-30T02:20:57.039Z,944.84
2018-04-30T02:21:37.572Z,944.85
2018-04-30T02:22:18.108Z,944.84
2018-04-30T02:22:58.642Z,944.86
2018-04-30T02:23:39.171Z,944.87
2018-04-30T02:24:19.699Z,944.9
2018-04-30T02:25:00.224Z,944.9
2018-04-30T02:25:40.756Z,944.88
2018-04-30T02:26:21.276Z,944.91
2018-04-30T02:27:01.790Z,944.94
2018-04-30T02:27:42.320Z,944.99
2018-04-30T02:28:22.855Z,945.01
2018-04-30T02:29:03.391Z,944.98
2018-04-30T02:29:43.921Z,945
2018-04-30T02:30:24.441Z,945.01
2018-04-30T02:31:04.968Z,945.01
2018-04-30T02:31:45.530Z,945.07
2018-04-30T02:32:26.054Z,945.09
2018-04-30T02:33:06.581Z,945.11
2018-04-30T02:33:47.110Z,945.12
2018-04-30T02:34:27.639Z,945.21
2018-04-30T02:35:08.171Z,945.22
2018-04-30T02:35:48.949Z,945.26
2018-04-30T02:36:29.482Z,945.24
2018-04-30T02:37:10.008Z,945.32
2018-04-30T02:37:50.535Z,945.33
2018-04-30T02:38:31.066Z,945.38
2018-04-30T02:39:11.593Z,945.35
2018-04-30T02:39:52.126Z,945.36
2018-04-30T02:40:33.451Z,945.33
2018-04-30T02:41:13.166Z,945.36
2018-04-30T02:41:53.689Z,945.34
2018-04-30T02:42:34.227Z,945.31
2018-04-30T02:43:14.759Z,945.26
2018-04-30T02:43:55.285Z,945.34
2018-04-30T02:44:35.818Z,945.34
2018-04-30T02:45:16.344Z,945.32
2018-04-30T02:45:56.875Z,945.35
2018-04-30T02:46:37.409Z,945.37
2018-04-30T02:47:17.928Z,945.36
2018-04-30T02:47:58.456Z,945.37
2018-04-30T02:48:38.992Z,945.37
2018-04-30T02:49:19.518Z,945.37
2018-04-30T02:50:00.045Z,945.39
2018-04-30T02:50:40.560Z,945.37
2018-04-30T02:51:21.092Z,945.42
2018-04-30T02:52:01.620Z,945.41
2018-04-30T02:52:42.176Z,945.4
2018-04-30T02:53:22.701Z,945.47
2018-04-30T02:54:03.186Z,945.48
2018-04-30T02:54:43.717Z,945.47
2018-04-30T02:55:24.241Z,945.47
2018-04-30T02:56:04.770Z,945.53
2018-04-30T02:56:45.294Z,945.5
2018-04-30T02:57:28.655Z,945.49
2018-04-30T02:58:09.186Z,945.6
2018-04-30T02:58:49.718Z,945.61
2018-04-30T02:59:30.235Z,945.59
2018-04-30T03:00:10.776Z,945.74
2018-04-30T03:00:51.279Z,945.85
2018-04-30T03:01:31.845Z,945.89
2018-04-30T03:02:12.670Z,945.94
2018-04-30T03:02:53.184Z,946
2018-04-30T03:03:33.716Z,946.1
2018-04-30T03:04:14.282Z,946.12
2018-04-30T03:04:54.800Z,946.16
2018-04-30T03:05:35.331Z,946.27
2018-04-30T03:06:16.245Z,946.3
2018-04-30T03:06:56.570Z,946.33
2018-04-30T03:07:37.247Z,946.42
2018-04-30T03:08:18.295Z,946.47
2018-04-30T03:08:59.318Z,946.49
2018-04-30T03:09:40.445Z,946.49
2018-04-30T03:10:21.329Z,946.54
2018-04-30T03:11:02.062Z,946.57
2018-04-30T03:11:42.575Z,946.65
2018-04-30T03:12:23.081Z,946.74
2018-04-30T03:13:03.604Z,946.67
2018-04-30T03:13:44.131Z,946.81
2018-04-30T03:14:24.665Z,946.73
2018-04-30T03:15:05.201Z,946.74
2018-04-30T03:15:45.721Z,946.74
2018-04-30T03:16:26.247Z,946.68
2018-04-30T03:17:06.771Z,946.73
2018-04-30T03:17:47.306Z,946.75
2018-04-30T03:18:27.834Z,946.74
2018-04-30T03:19:08.396Z,946.79
2018-04-30T03:19:48.903Z,946.88
2018-04-30T03:20:29.486Z,946.89
2018-04-30T03:21:09.953Z,946.89
2018-04-30T03:21:50.485Z,946.95
2018-04-30T03:22:31.005Z,946.9
2018-04-30T03:23:11.536Z,946.97
2018-04-30T03:23:52.065Z,947
2018-04-30T03:24:32.597Z,946.94
2018-04-30T03:25:13.130Z,946.93
2018-04-30T03:25:53.649Z,947.01
2018-04-30T03:26:34.174Z,947
2018-04-30T03:27:14.709Z,947.06
2018-04-30T03:27:55.245Z,947.05
2018-04-30T03:28:35.775Z,947.14
2018-04-30T03:29:16.778Z,947.16
2018-04-30T03:29:56.974Z,947.19
2018-04-30T03:30:37.538Z,947.26
2018-04-30T03:31:18.020Z,947.36
2018-04-30T03:31:58.547Z,947.36
2018-04-30T03:32:39.220Z,947.33
2018-04-30T03:33:20.431Z,947.39
2018-04-30T03:34:00.987Z,947.5
2018-04-30T03:34:41.514Z,947.44
2018-04-30T03:35:22.078Z,947.51
2018-04-30T03:36:02.575Z,947.59
2018-04-30T03:36:43.960Z,947.55
2018-04-30T03:37:23.623Z,947.55
2018-04-30T03:38:04.148Z,947.58
2018-04-30T03:38:44.676Z,947.57
2018-04-30T03:39:25.204Z,947.58
2018-04-30T03:40:05.733Z,947.67
2018-04-30T03:40:47.335Z,947.63
2018-04-30T03:41:27.929Z,947.73
2018-04-30T03:42:08.463Z,947.83
2018-04-30T03:42:48.987Z,947.91
2018-04-30T03:43:30.456Z,947.86
2018-04-30T03:44:10.041Z,947.93
2018-04-30T03:44:50.569Z,947.91
2018-04-30T03:45:31.110Z,947.9
2018-04-30T03:46:11.633Z,948.02
2018-04-30T03:46:52.157Z,948
2018-04-30T03:47:32.685Z,948.03
2018-04-30T03:48:13.217Z,948.09
2018-04-30T03:48:53.738Z,947.97
2018-04-30T03:49:34.272Z,948.11
2018-04-30T03:50:14.794Z,948.13
2018-04-30T03:50:55.309Z,948.17
2018-04-30T03:51:35.839Z,948.19
2018-04-30T03:52:16.362Z,948.23
2018-04-30T03:52:56.892Z,948.25
2018-04-30T03:53:37.440Z,948.3
2018-04-30T03:54:17.959Z,948.41
2018-04-30T03:54:58.489Z,948.47
2018-04-30T03:55:39.018Z,948.36
2018-04-30T03:56:19.938Z,948.33
2018-04-30T03:57:00.468Z,948.29
2018-04-30T03:57:41.005Z,948.36
2018-04-30T03:58:21.530Z,948.39
2018-04-30T03:59:02.044Z,948.4
2018-04-30T03:59:43.459Z,948.4
2018-04-30T04:00:23.043Z,948.45
2018-04-30T04:01:03.577Z,948.53
2018-04-30T04:01:44.105Z,948.65
2018-04-30T04:02:24.633Z,948.59
2018-04-30T04:03:05.163Z,948.68
2018-04-30T04:06:39.012Z,948.88
2018-04-30T04:07:19.541Z,949.04
2018-04-30T04:08:00.063Z,948.98
2018-04-30T04:08:40.602Z,949
2018-04-30T04:09:21.126Z,949.09
2018-04-30T04:10:01.644Z,949.17
2018-04-30T04:10:42.174Z,949.07
2018-04-30T04:11:22.706Z,949.24
2018-04-30T04:12:03.241Z,949.17
2018-04-30T04:12:47.424Z,949.32
2018-04-30T04:13:26.986Z,949.33
2018-04-30T04:14:07.508Z,949.3
2018-04-30T04:14:48.039Z,949.35
2018-04-30T04:15:28.557Z,949.34
2018-04-30T04:16:10.906Z,949.34
2018-04-30T04:16:50.496Z,949.49
2018-04-30T04:17:31.905Z,949.38
2018-04-30T04:18:11.551Z,949.38
2018-04-30T04:18:52.070Z,949.46
2018-04-30T04:19:32.586Z,949.56
2018-04-30T04:20:13.112Z,949.36
2018-04-30T04:20:53.634Z,949.55
2018-04-30T04:21:34.165Z,949.51
2018-04-30T04:22:14.696Z,949.61
2018-04-30T04:22:55.203Z,949.68
2018-04-30T04:23:35.726Z,949.57
2018-04-30T04:24:16.247Z,949.71
2018-04-30T04:24:56.765Z,949.7
2018-04-30T04:25:37.291Z,949.74
2018-04-30T04:26:17.816Z,949.78
2018-04-30T04:26:58.345Z,949.82
2018-04-30T04:27:39.428Z,949.76
2018-04-30T04:28:19.971Z,949.83
2018-04-30T04:29:00.484Z,949.87
2018-04-30T04:29:42.407Z,949.79
2018-04-30T04:30:22.333Z,949.75
2018-04-30T04:31:02.891Z,949.87
2018-04-30T04:31:44.110Z,949.97
2018-04-30T04:32:24.634Z,949.75
2018-04-30T04:33:05.167Z,949.62
2018-04-30T04:33:46.410Z,949.85
2018-04-30T04:34:26.238Z,949.82
2018-04-30T04:35:06.769Z,949.9
2018-04-30T04:35:47.293Z,949.82
2018-04-30T04:36:27.837Z,949.96
2018-04-30T04:37:08.364Z,949.97
2018-04-30T04:37:48.906Z,949.88
2018-04-30T04:38:29.429Z,949.88
2018-04-30T04:39:09.946Z,949.97
2018-04-30T04:39:50.475Z,949.93
2018-04-30T04:40:31.008Z,949.88
2018-04-30T04:41:11.545Z,949.93
2018-04-30T04:41:52.075Z,949.97
2018-04-30T04:42:32.596Z,949.94
2018-04-30T04:43:13.111Z,949.91
2018-04-30T04:43:53.646Z,950.03
2018-04-30T04:44:34.179Z,950.06
2018-04-30T04:45:14.699Z,950.03
2018-04-30T04:45:55.229Z,950.1
2018-04-30T04:46:35.760Z,950.17
2018-04-30T04:47:16.283Z,950.17
2018-04-30T04:47:56.811Z,950.25
2018-04-30T04:48:37.341Z,950.2
2018-04-30T04:49:17.865Z,950.17
2018-04-30T04:49:58.432Z,950.23
2018-04-30T04:50:39.021Z,950.26
2018-04-30T04:51:19.455Z,950.26
2018-04-30T04:51:59.986Z,950.32
2018-04-30T04:52:40.506Z,950.17
2018-04-30T04:53:21.033Z,950.27
2018-04-30T04:54:01.553Z,950.24
2018-04-30T04:54:42.079Z,950.26
2018-04-30T04:55:22.604Z,950.37
2018-04-30T04:56:03.138Z,950.37
2018-04-30T04:56:43.656Z,950.38
2018-04-30T04:57:24.185Z,950.45
2018-04-30T04:58:05.413Z,950.52
2018-04-30T04:58:45.257Z,950.45
2018-04-30T04:59:25.784Z,950.47
2018-04-30T05:00:06.307Z,950.57
2018-04-30T05:00:46.841Z,950.56
2018-04-30T05:01:27.364Z,950.67
2018-04-30T05:02:07.915Z,950.65
2018-04-30T05:02:48.421Z,950.74
2018-04-30T05:03:29.831Z,950.75
2018-04-30T05:04:10.356Z,950.68
2018-04-30T05:04:50.883Z,950.74
2018-04-30T05:05:31.411Z,950.7
2018-04-30T05:06:11.950Z,950.78
2018-04-30T05:06:52.484Z,950.7
2018-04-30T05:07:33.917Z,950.77
2018-04-30T05:08:13.531Z,950.74
2018-04-30T05:08:54.058Z,950.84
2018-04-30T05:09:34.588Z,950.83
2018-04-30T05:10:15.914Z,950.81
2018-04-30T05:10:55.679Z,950.88
2018-04-30T05:11:36.161Z,950.8
2018-04-30T05:12:16.718Z,950.8
2018-04-30T05:12:57.252Z,950.73
2018-04-30T05:13:37.768Z,950.83
2018-04-30T05:14:18.293Z,950.78
2018-04-30T05:14:58.822Z,950.8
2018-04-30T05:15:39.353Z,950.85
2018-04-30T05:16:19.889Z,950.72
2018-04-30T05:17:00.416Z,950.75
2018-04-30T05:17:40.938Z,950.73
2018-04-30T05:18:21.472Z,950.83
2018-04-30T05:19:02.068Z,950.72
2018-04-30T05:19:42.530Z,950.78
2018-04-30T05:20:23.049Z,950.81
2018-04-30T05:21:03.573Z,950.77
2018-04-30T05:21:44.093Z,950.8
2018-04-30T05:22:24.614Z,950.86
2018-04-30T05:23:05.139Z,950.89
2018-04-30T05:23:47.420Z,950.94
2018-04-30T05:24:27.016Z,950.99
2018-04-30T05:25:07.545Z,951.06
2018-04-30T05:25:48.067Z,950.99
2018-04-30T05:26:29.416Z,950.91
2018-04-30T05:27:09.123Z,950.98
2018-04-30T05:27:49.649Z,950.95
2018-04-30T05:28:30.172Z,950.97
2018-04-30T05:29:10.701Z,950.93
2018-04-30T05:29:51.244Z,950.93
2018-04-30T05:30:31.751Z,950.91
2018-04-30T05:31:12.275Z,950.95
2018-04-30T05:31:52.798Z,950.98
2018-04-30T05:32:33.337Z,951.07
2018-04-30T05:33:13.855Z,951.05
2018-04-30T05:33:54.408Z,951.14
2018-04-30T05:34:34.973Z,951.01
2018-04-30T05:35:15.499Z,951.04
2018-04-30T05:35:56.029Z,951.05
2018-04-30T05:36:36.553Z,951.06
2018-04-30T05:37:17.079Z,950.98
2018-04-30T05:37:57.607Z,950.97
2018-04-30T05:38:38.402Z,950.97
2018-04-30T05:39:18.934Z,951
2018-04-30T05:39:59.450Z,951.02
2018-04-30T05:40:39.980Z,951.04
2018-04-30T05:41:20.514Z,951.05
2018-04-30T05:42:01.046Z,951.01
2018-04-30T05:42:41.572Z,951.04
2018-04-30T05:43:22.094Z,951.12
2018-04-30T05:44:02.614Z,951.13
2018-04-30T05:44:43.152Z,951.16
2018-04-30T05:45:24.421Z,951.2
2018-04-30T05:46:04.201Z,951.26
2018-04-30T05:46:44.720Z,951.33
2018-04-30T05:47:25.248Z,951.39
2018-04-30T05:48:05.856Z,951.4
2018-04-30T05:48:46.289Z,951.47
2018-04-30T05:49:26.820Z,951.53
2018-04-30T05:50:07.354Z,951.55
2018-04-30T05:50:47.893Z,951.64
2018-04-30T05:51:28.402Z,951.63
2018-04-30T05:52:08.933Z,951.61
2018-04-30T05:52:49.452Z,951.56
2018-04-30T05:53:29.953Z,951.52
2018-04-30T05:54:10.473Z,951.49
2018-04-30T05:54:50.995Z,951.54
2018-04-30T05:55:31.563Z,951.5
2018-04-30T05:56:12.051Z,951.53
2018-04-30T05:56:52.555Z,951.58
2018-04-30T05:57:33.059Z,951.5
2018-04-30T05:58:13.597Z,951.58
2018-04-30T05:58:54.114Z,951.61
2018-04-30T05:59:34.611Z,951.55
2018-04-30T06:00:15.089Z,951.6
2018-04-30T06:00:55.577Z,951.58
2018-04-30T06:01:36.110Z,951.55
2018-04-30T06:02:16.608Z,951.57
2018-04-30T06:02:57.106Z,951.54
2018-04-30T06:03:37.622Z,951.58
2018-04-30T06:04:18.128Z,951.58
2018-04-30T06:04:58.605Z,951.61
2018-04-30T06:05:39.136Z,951.63
2018-04-30T06:06:19.653Z,951.63
2018-04-30T06:07:00.147Z,951.63
2018-04-30T06:07:40.630Z,951.7
2018-04-30T06:08:21.168Z,951.66
2018-04-30T06:09:01.697Z,951.7
2018-04-30T06:09:42.175Z,951.68
2018-04-30T06:10:22.666Z,951.63
2018-04-30T06:11:04.119Z,951.64
2018-04-30T06:11:44.619Z,951.61
2018-04-30T06:12:25.923Z,951.54
2018-04-30T06:13:05.688Z,951.56
2018-04-30T06:13:46.201Z,951.52
2018-04-30T06:14:26.698Z,951.49
2018-04-30T06:15:07.142Z,951.45
2018-04-30T06:15:47.646Z,951.45
2018-04-30T06:16:28.131Z,951.45
2018-04-30T06:17:08.631Z,951.47
2018-04-30T06:17:49.145Z,951.47
2018-04-30T06:18:29.583Z,951.48
2018-04-30T06:19:10.822Z,951.52
2018-04-30T06:19:51.306Z,951.5
2018-04-30T06:20:31.806Z,951.5
2018-04-30T06:21:12.284Z,951.53
2018-04-30T06:21:52.780Z,951.56
2018-04-30T06:22:33.270Z,951.56
2018-04-30T06:23:13.796Z,951.61
2018-04-30T06:23:54.248Z,951.58
2018-04-30T06:24:34.743Z,951.54
2018-04-30T06:25:15.259Z,951.53
2018-04-30T06:25:55.741Z,951.52
2018-04-30T06:26:36.319Z,951.5
2018-04-30T06:27:16.695Z,951.5
2018-04-30T06:27:57.191Z,951.46
2018-04-30T06:28:37.707Z,951.43
2018-04-30T06:29:18.186Z,951.34
2018-04-30T06:29:58.696Z,951.34
2018-04-30T06:30:40.698Z,951.26
2018-04-30T06:31:21.221Z,951.27
2018-04-30T06:32:01.701Z,951.21
2018-04-30T06:32:42.226Z,951.22
2018-04-30T06:33:22.722Z,951.19
2018-04-30T06:34:03.293Z,951.19
2018-04-30T06:34:43.787Z,951.17
2018-04-30T06:35:24.239Z,951.2
2018-04-30T06:36:04.778Z,951.2
2018-04-30T06:36:45.274Z,951.22
2018-04-30T06:37:25.732Z,951.17
2018-04-30T06:38:06.307Z,951.21
2018-04-30T06:38:46.771Z,951.24
2018-04-30T06:39:27.275Z,951.2
2018-04-30T06:40:09.457Z,951.2
2018-04-30T06:40:49.966Z,951.19
2018-04-30T06:41:30.465Z,951.15
2018-04-30T06:42:11.491Z,951.12
2018-04-30T06:42:52.700Z,951.12
2018-04-30T06:43:33.239Z,951.14
2018-04-30T06:44:13.720Z,951.2
2018-04-30T06:44:54.163Z,951.25
2018-04-30T06:45:35.432Z,951.24
2018-04-30T06:46:15.168Z,951.27
2018-04-30T06:46:55.666Z,951.26
2018-04-30T06:47:36.261Z,951.28
2018-04-30T06:48:16.670Z,951.27
2018-04-30T06:48:57.186Z,951.28
2018-04-30T06:49:37.649Z,951.25
2018-04-30T06:50:18.135Z,951.24
2018-04-30T06:50:58.619Z,951.35
2018-04-30T06:51:39.149Z,951.38
2018-04-30T06:52:20.190Z,951.33
2018-04-30T06:53:00.692Z,951.34
2018-04-30T06:53:41.165Z,951.28
2018-04-30T06:54:21.656Z,951.32
2018-04-30T06:55:02.174Z,951.32
2018-04-30T06:55:42.648Z,951.45
2018-04-30T06:56:23.380Z,951.43
2018-04-30T06:57:03.867Z,951.44
2018-04-30T06:57:44.370Z,951.39
2018-04-30T06:58:24.886Z,951.29
2018-04-30T06:59:05.383Z,951.29
2018-04-30T06:59:45.893Z,951.3
2018-04-30T07:00:26.549Z,951.25
2018-04-30T07:01:06.881Z,951.18
2018-04-30T07:01:47.350Z,951.21
2018-04-30T07:02:27.864Z,951.28
2018-04-30T07:03:08.367Z,951.34
2018-04-30T07:03:48.832Z,951.39
2018-04-30T07:04:29.315Z,951.43
2018-04-30T07:05:09.835Z,951.51
2018-04-30T07:05:50.324Z,951.55
2018-04-30T07:06:31.433Z,951.6
2018-04-30T07:07:11.290Z,951.56
2018-04-30T07:07:51.803Z,951.61
2018-04-30T07:08:32.303Z,951.62
2018-04-30T07:09:12.840Z,951.69
2018-04-30T07:09:53.299Z,951.71
2018-04-30T07:10:33.790Z,951.64
2018-04-30T07:11:14.273Z,951.66
2018-04-30T07:11:55.930Z,951.7
2018-04-30T07:12:35.768Z,951.77
2018-04-30T07:13:16.287Z,951.79
2018-04-30T07:13:56.777Z,951.84
2018-04-30T07:14:37.243Z,951.76
2018-04-30T07:15:17.760Z,951.72
2018-04-30T07:15:58.251Z,951.71
2018-04-30T07:16:38.762Z,951.73
2018-04-30T07:17:19.334Z,951.67
2018-04-30T07:17:59.869Z,951.7
2018-04-30T07:18:40.344Z,951.73
2018-04-30T07:19:20.794Z,951.72
2018-04-30T07:20:01.398Z,951.74
2018-04-30T07:20:41.843Z,951.7
2018-04-30T07:21:22.329Z,951.73
2018-04-30T07:22:02.837Z,951.73
2018-04-30T07:22:43.323Z,951.63
2018-04-30T07:23:23.783Z,951.55
2018-04-30T07:24:04.289Z,951.45
2018-04-30T07:24:44.767Z,951.39
2018-04-30T07:25:25.270Z,951.45
2018-04-30T07:26:05.792Z,951.47
2018-04-30T07:26:46.296Z,951.54
2018-04-30T07:27:26.781Z,951.54
2018-04-30T07:28:07.933Z,951.53
2018-04-30T07:28:47.769Z,951.55
2018-04-30T07:29:28.301Z,951.57
2018-04-30T07:30:08.791Z,951.64
2018-04-30T07:30:49.297Z,951.66
2018-04-30T07:31:29.770Z,951.66
2018-04-30T07:32:10.358Z,951.68
2018-04-30T07:32:50.751Z,951.67
2018-04-30T07:33:31.261Z,951.71
2018-04-30T07:34:12.349Z,951.73
2018-04-30T07:34:52.836Z,951.75
2018-04-30T07:35:33.349Z,951.76
2018-04-30T07:36:13.821Z,951.72
2018-04-30T07:36:54.364Z,951.71
2018-04-30T07:37:35.435Z,951.71
2018-04-30T07:38:15.903Z,951.65
2018-04-30T07:38:56.434Z,951.62
2018-04-30T07:39:36.941Z,951.63
2018-04-30T07:40:17.441Z,951.59
2018-04-30T07:40:57.899Z,951.65
2018-04-30T07:41:38.349Z,951.57
2018-04-30T07:42:18.862Z,951.58
2018-04-30T07:42:59.388Z,951.5
2018-04-30T07:43:39.881Z,951.48
2018-04-30T07:44:20.363Z,951.49
2018-04-30T07:45:00.813Z,951.5
2018-04-30T07:45:41.309Z,951.61
2018-04-30T07:46:21.797Z,951.57
2018-04-30T07:47:02.282Z,951.55
2018-04-30T07:47:42.799Z,951.55
2018-04-30T07:48:23.310Z,951.59
2018-04-30T07:49:03.793Z,951.57
2018-04-30T07:49:44.257Z,951.54
2018-04-30T07:50:24.760Z,951.56
2018-04-30T07:51:05.239Z,951.51
2018-04-30T07:51:45.753Z,951.57
2018-04-30T07:52:26.265Z,951.5
2018-04-30T07:53:06.764Z,951.47
2018-04-30T07:53:47.259Z,951.49
2018-04-30T07:54:27.806Z,951.5
2018-04-30T07:55:08.240Z,951.5
2018-04-30T07:55:48.937Z,951.46
2018-04-30T07:56:29.244Z,951.48
2018-04-30T07:57:09.736Z,951.46
2018-04-30T07:57:50.194Z,951.44
2018-04-30T07:58:30.661Z,951.47
2018-04-30T07:59:11.222Z,951.48
2018-04-30T07:59:51.712Z,951.55
2018-04-30T08:00:32.176Z,951.6
2018-04-30T08:01:12.713Z,951.62
2018-04-30T08:01:53.164Z,951.66
2018-04-30T08:02:33.685Z,951.94
2018-04-30T08:03:14.164Z,951.82
2018-04-30T08:03:54.661Z,951.82
2018-04-30T08:04:35.196Z,951.69
2018-04-30T08:05:15.691Z,951.88
2018-04-30T08:05:56.223Z,951.78
2018-04-30T08:06:36.750Z,951.74
2018-04-30T08:07:17.269Z,951.6
2018-04-30T08:07:57.719Z,951.88
2018-04-30T08:08:38.217Z,951.88
2018-04-30T08:09:18.714Z,951.79
2018-04-30T08:09:59.218Z,951.88
2018-04-30T08:10:39.775Z,951.87
2018-04-30T08:11:20.943Z,951.87
2018-04-30T08:12:01.651Z,951.85
2018-04-30T08:12:42.131Z,951.93
2018-04-30T08:13:22.651Z,951.99
2018-04-30T08:14:03.165Z,951.85
2018-04-30T08:14:43.690Z,951.93
2018-04-30T08:15:24.222Z,951.95
2018-04-30T08:16:04.751Z,951.95
2018-04-30T08:16:45.288Z,951.97
2018-04-30T08:17:25.831Z,951.95
2018-04-30T08:18:06.374Z,951.97
2018-04-30T08:18:46.911Z,951.96
2018-04-30T08:19:27.451Z,952.01
2018-04-30T08:20:07.994Z,952
2018-04-30T08:20:48.528Z,951.66
2018-04-30T08:21:29.125Z,951.8
2018-04-30T08:22:09.605Z,952
2018-04-30T08:22:50.141Z,951.71
2018-04-30T08:23:30.685Z,951.95
2018-04-30T08:24:11.230Z,951.63
2018-04-30T08:24:52.521Z,952
2018-04-30T08:25:33.956Z,951.73
2018-04-30T08:26:13.603Z,951.61
2018-04-30T08:26:54.193Z,951.61
2018-04-30T08:27:34.681Z,951.8
2018-04-30T08:28:15.219Z,951.58
2018-04-30T08:28:55.756Z,951.64
2018-04-30T08:29:36.298Z,951.56
2018-04-30T08:30:16.838Z,951.89
2018-04-30T08:30:57.377Z,951.92
2018-04-30T08:31:37.919Z,951.61